createdAt,value
2018-02-06T00:00:26.129Z,0.38
2018-02-06T00:01:25.961Z,0.32
2018-02-06T00:02:26.385Z,0.33
2018-02-06T00:03:25.955Z,0.33
2018-02-06T00:04:25.905Z,0.34
2018-02-06T00:05:25.933Z,0.29
2018-02-06T00:06:25.982Z,0.32
2018-02-06T00:07:26.177Z,0.29
2018-02-06T00:08:26.181Z,0.31
2018-02-06T00:09:25.911Z,0.27
2018-02-06T00:10:25.887Z,0.32
2018-02-06T00:11:26.041Z,0.28
2018-02-06T00:12:25.993Z,0.31
2018-02-06T00:13:26.138Z,0.27
2018-02-06T00:14:25.943Z,0.26
2018-02-06T00:15:25.925Z,0.23
2018-02-06T00:16:26.040Z,0.22
2018-02-06T00:17:26.237Z,0.23
2018-02-06T00:18:25.877Z,0.23
2018-02-06T00:19:25.965Z,0.22
2018-02-06T00:20:25.983Z,0.26
2018-02-06T00:21:25.906Z,0.25
2018-02-06T00:22:26.290Z,0.21
2018-02-06T00:23:26.063Z,0.21
2018-02-06T00:24:26.003Z,0.23
2018-02-06T00:25:25.960Z,0.24
2018-02-06T00:26:26.124Z,0.2
2018-02-06T00:27:26.027Z,0.21
2018-02-06T00:28:26.122Z,0.18
2018-02-06T00:29:25.861Z,0.22
2018-02-06T00:30:25.935Z,0.19
2018-02-06T00:31:26.018Z,0.21
2018-02-06T00:32:26.104Z,0.18
2018-02-06T00:33:25.821Z,0.21
2018-02-06T00:34:26.035Z,0.21
2018-02-06T00:35:25.961Z,0.25
2018-02-06T00:36:26.142Z,0.21
2018-02-06T00:39:26.064Z,0.21
2018-02-06T00:40:26.180Z,0.24
2018-02-06T00:41:26.156Z,0.2
2018-02-06T00:42:26.222Z,0.21
2018-02-06T00:43:26.034Z,0.21
2018-02-06T00:44:26.278Z,0.23
2018-02-06T00:45:25.984Z,0.26
2018-02-06T00:46:26.183Z,0.26
2018-02-06T00:47:25.938Z,0.23
2018-02-06T00:48:26.058Z,0.24
2018-02-06T00:49:25.919Z,0.21
2018-02-06T00:50:26.004Z,0.24
2018-02-06T00:51:26.160Z,0.2
2018-02-06T00:52:26.329Z,0.21
2018-02-06T00:55:25.923Z,0.16
2018-02-06T00:56:25.920Z,0.18
2018-02-06T00:57:26.007Z,0.18
2018-02-06T00:58:25.982Z,0.13
2018-02-06T00:59:26.000Z,0.14
2018-02-06T01:00:25.744Z,0.12
2018-02-06T01:01:25.856Z,0.12
2018-02-06T01:02:25.768Z,0.09
2018-02-06T01:03:25.754Z,0.12
2018-02-06T01:04:25.927Z,0.09
2018-02-06T01:05:25.905Z,0.09
2018-02-06T01:06:25.911Z,0.09
2018-02-06T01:07:25.741Z,0.12
2018-02-06T01:08:25.846Z,0.12
2018-02-06T01:09:26.119Z,0.12
2018-02-06T01:10:25.733Z,0.09
2018-02-06T01:11:25.838Z,0.09
2018-02-06T01:12:25.780Z,0.08
2018-02-06T01:13:25.786Z,0.08
2018-02-06T01:14:25.932Z,0.07
2018-02-06T01:15:25.837Z,0.08
2018-02-06T01:18:25.974Z,0.07
2018-02-06T01:19:26.146Z,0.07
2018-02-06T01:20:25.841Z,0.09
2018-02-06T01:21:25.764Z,0.09
2018-02-06T01:22:25.847Z,0.11
2018-02-06T01:23:25.892Z,0.07
2018-02-06T01:24:26.345Z,0.07
2018-02-06T01:25:25.866Z,0.09
2018-02-06T01:26:25.822Z,0.07
2018-02-06T01:27:25.871Z,0.07
2018-02-06T01:28:26.030Z,0.07
2018-02-06T01:29:25.988Z,0.07
2018-02-06T01:30:26.033Z,0.08
2018-02-06T01:31:25.804Z,0.03
2018-02-06T01:32:25.914Z,0.07
2018-02-06T01:33:25.814Z,0.09
2018-02-06T01:34:25.936Z,0.12
2018-02-06T01:35:26.121Z,0.15
2018-02-06T01:36:26.040Z,0.15
2018-02-06T01:37:25.858Z,0.15
2018-02-06T01:38:25.896Z,0.14
2018-02-06T01:39:25.862Z,0.13
2018-02-06T01:40:25.947Z,0.14
2018-02-06T01:41:25.855Z,0.15
2018-02-06T01:42:25.802Z,0.13
2018-02-06T01:43:25.991Z,0.12
2018-02-06T01:44:25.973Z,0.15
2018-02-06T01:45:26.032Z,0.15
2018-02-06T01:46:25.853Z,0.15
2018-02-06T01:47:25.753Z,0.15
2018-02-06T01:48:25.879Z,0.13
2018-02-06T01:49:25.755Z,0.15
2018-02-06T01:50:26.029Z,0.17
2018-02-06T01:51:25.765Z,0.19
2018-02-06T01:52:25.930Z,0.15
2018-02-06T01:53:25.962Z,0.16
2018-02-06T01:54:26.043Z,0.15
2018-02-06T01:55:26.188Z,0.15
2018-02-06T01:56:25.906Z,0.16
2018-02-06T01:57:25.914Z,0.14
2018-02-06T01:58:25.948Z,0.15
2018-02-06T01:59:25.850Z,0.18
2018-02-06T02:00:25.914Z,0.13
2018-02-06T02:01:25.981Z,0.13
2018-02-06T02:02:25.788Z,0.09
2018-02-06T02:03:25.933Z,0.12
2018-02-06T02:04:26.079Z,0.07
2018-02-06T02:05:25.807Z,0.07
2018-02-06T02:06:25.944Z,0.06
2018-02-06T02:07:25.764Z,0.07
2018-02-06T02:08:25.864Z,0.03
2018-02-06T02:09:25.779Z,0.07
2018-02-06T02:10:25.914Z,0.07
2018-02-06T02:11:25.925Z,0.03
2018-02-06T02:12:25.951Z,0.07
2018-02-06T02:13:25.965Z,0.03
2018-02-06T02:14:25.806Z,0.06
2018-02-06T02:15:25.846Z,0.01
2018-02-06T02:16:25.794Z,0.02
2018-02-06T02:17:26.000Z,0.04
2018-02-06T02:18:25.955Z,0.03
2018-02-06T02:19:25.800Z,0.08
2018-02-06T02:20:25.968Z,0.08
2018-02-06T02:21:25.736Z,0.05
2018-02-06T02:22:25.793Z,0.07
2018-02-06T02:23:25.838Z,0.03
2018-02-06T02:24:25.934Z,0.1
2018-02-06T02:25:25.818Z,0.07
2018-02-06T02:26:25.936Z,0.07
2018-02-06T02:27:26.019Z,0.08
2018-02-06T02:28:26.052Z,0.09
2018-02-06T02:29:25.753Z,0.09
2018-02-06T02:30:25.823Z,0.14
2018-02-06T02:31:25.819Z,0.14
2018-02-06T02:32:25.662Z,0.14
2018-02-06T02:33:26.855Z,0.09
2018-02-06T02:34:26.589Z,0.11
2018-02-06T02:35:26.557Z,0.13
2018-02-06T02:36:26.608Z,0.12
2018-02-06T02:37:26.631Z,0.08
2018-02-06T02:38:26.359Z,0.08
2018-02-06T02:39:26.743Z,0.07
2018-02-06T02:40:26.620Z,0.06
2018-02-06T02:41:26.556Z,0.07
2018-02-06T04:38:26.620Z,-0.13
2018-02-06T04:39:26.525Z,-0.16
2018-02-06T04:40:26.716Z,-0.11
2018-02-06T04:41:26.815Z,-0.15
2018-02-06T04:42:26.832Z,-0.11
2018-02-06T04:43:26.756Z,-0.11
2018-02-06T04:44:26.912Z,-0.11
2018-02-06T04:45:26.741Z,-0.12
2018-02-06T04:46:26.752Z,-0.11
2018-02-06T04:47:26.796Z,-0.11
2018-02-06T04:48:26.794Z,-0.15
2018-02-06T04:49:26.849Z,-0.12
2018-02-06T04:50:26.603Z,-0.13
2018-02-06T04:51:26.657Z,-0.15
2018-02-06T04:52:26.558Z,-0.12
2018-02-06T04:53:26.540Z,-0.12
2018-02-06T04:54:26.558Z,-0.12
2018-02-06T04:55:26.737Z,-0.13
2018-02-06T04:56:26.655Z,-0.12
2018-02-06T04:57:26.636Z,-0.16
2018-02-06T04:58:26.681Z,-0.16
2018-02-06T04:59:26.589Z,-0.16
2018-02-06T05:02:26.783Z,-0.17
2018-02-06T05:03:26.712Z,-0.18
2018-02-06T05:04:26.700Z,-0.15
2018-02-06T05:05:26.517Z,-0.09
2018-02-06T05:06:26.517Z,-0.09
2018-02-06T05:07:26.665Z,-0.1
2018-02-06T05:08:26.476Z,-0.1
2018-02-06T05:09:26.564Z,-0.1
2018-02-06T05:10:26.452Z,-0.09
2018-02-06T05:11:26.425Z,-0.06
2018-02-06T05:12:26.595Z,-0.05
2018-02-06T05:13:26.416Z,-0.03
2018-02-06T05:14:26.853Z,-0.02
2018-02-06T05:15:26.692Z,-0.03
2018-02-06T05:16:26.626Z,0
2018-02-06T05:17:26.613Z,0.03
2018-02-06T05:18:26.635Z,0.04
2018-02-06T05:19:26.543Z,0.02
2018-02-06T05:20:26.591Z,-0.01
2018-02-06T05:21:26.542Z,-0.01
2018-02-06T05:22:26.550Z,-0.05
2018-02-06T05:23:26.468Z,-0.05
2018-02-06T05:24:26.653Z,-0.1
2018-02-06T05:25:26.595Z,-0.06
2018-02-06T05:26:26.618Z,-0.07
2018-02-06T05:27:26.480Z,-0.11
2018-02-06T05:28:26.575Z,-0.13
2018-02-06T05:29:26.789Z,-0.11
2018-02-06T05:30:26.593Z,-0.12
2018-02-06T05:31:26.692Z,-0.11
2018-02-06T05:32:26.620Z,-0.12
2018-02-06T05:33:26.600Z,-0.15
2018-02-06T05:34:26.632Z,-0.11
2018-02-06T05:35:26.783Z,-0.15
2018-02-06T05:36:26.481Z,-0.12
2018-02-06T05:37:26.628Z,-0.15
2018-02-06T05:38:26.611Z,-0.12
2018-02-06T05:39:26.474Z,-0.11
2018-02-06T05:40:26.603Z,-0.11
2018-02-06T05:41:26.547Z,-0.1
2018-02-06T05:42:26.340Z,-0.1
2018-02-06T05:43:26.322Z,-0.11
2018-02-06T05:44:26.441Z,-0.1
2018-02-06T05:45:26.634Z,-0.09
2018-02-06T05:46:26.402Z,-0.1
2018-02-06T05:47:26.606Z,-0.11
2018-02-06T05:48:26.437Z,-0.12
2018-02-06T05:49:26.392Z,-0.12
2018-02-06T05:50:26.437Z,-0.14
2018-02-06T05:51:26.461Z,-0.11
2018-02-06T05:52:26.435Z,-0.15
2018-02-06T05:53:26.398Z,-0.1
2018-02-06T05:54:26.550Z,-0.11
2018-02-06T05:55:26.501Z,-0.07
2018-02-06T05:56:26.730Z,-0.09
2018-02-06T05:57:26.504Z,-0.11
2018-02-06T05:58:26.457Z,-0.11
2018-02-06T05:59:26.386Z,-0.11
2018-02-06T06:00:26.510Z,-0.11
2018-02-06T06:01:26.540Z,-0.11
2018-02-06T06:02:26.649Z,-0.12
2018-02-06T06:03:26.676Z,-0.12
2018-02-06T06:04:26.486Z,-0.15
2018-02-06T06:05:26.578Z,-0.13
2018-02-06T06:06:26.658Z,-0.16
2018-02-06T06:07:26.656Z,-0.13
2018-02-06T06:08:26.757Z,-0.12
2018-02-06T06:09:26.729Z,-0.15
2018-02-06T06:10:26.659Z,-0.11
2018-02-06T06:11:26.683Z,-0.12
2018-02-06T06:12:26.656Z,-0.12
2018-02-06T06:13:26.498Z,-0.1
2018-02-06T06:14:26.669Z,-0.06
2018-02-06T06:15:26.754Z,-0.09
2018-02-06T06:16:26.796Z,-0.08
2018-02-06T06:17:26.750Z,-0.06
2018-02-06T06:18:26.619Z,-0.05
2018-02-06T06:19:26.808Z,-0.11
2018-02-06T06:20:26.674Z,-0.07
2018-02-06T06:21:26.640Z,-0.11
2018-02-06T06:22:26.559Z,-0.12
2018-02-06T06:23:26.651Z,-0.1
2018-02-06T06:24:26.600Z,-0.11
2018-02-06T06:25:26.668Z,-0.11
2018-02-06T06:26:26.722Z,-0.11
2018-02-06T06:27:36.702Z,-0.11
2018-02-06T06:28:26.502Z,-0.12
2018-02-06T06:29:26.484Z,-0.15
2018-02-06T06:30:26.546Z,-0.11
2018-02-06T06:31:26.583Z,-0.11
2018-02-06T06:32:26.601Z,-0.11
2018-02-06T06:33:26.576Z,-0.09
2018-02-06T06:34:26.746Z,-0.15
2018-02-06T06:35:26.963Z,-0.11
2018-02-06T06:36:26.643Z,-0.15
2018-02-06T06:37:26.832Z,-0.12
2018-02-06T06:38:26.618Z,-0.15
2018-02-06T06:39:26.725Z,-0.11
2018-02-06T06:40:26.497Z,-0.15
2018-02-06T06:41:26.606Z,-0.11
2018-02-06T06:42:26.615Z,-0.17
2018-02-06T06:43:26.595Z,-0.12
2018-02-06T06:44:26.590Z,-0.11
2018-02-06T06:45:26.882Z,-0.1
2018-02-06T06:46:26.540Z,-0.11
2018-02-06T06:47:26.752Z,-0.09
2018-02-06T06:48:26.819Z,-0.09
2018-02-06T06:49:26.849Z,-0.11
2018-02-06T06:50:26.541Z,-0.11
2018-02-06T06:51:26.630Z,-0.07
2018-02-06T06:52:26.731Z,-0.1
2018-02-06T06:53:26.748Z,-0.07
2018-02-06T06:54:26.663Z,-0.12
2018-02-06T06:55:26.688Z,-0.11
2018-02-06T06:56:26.620Z,-0.11
2018-02-06T06:57:26.933Z,-0.1
2018-02-06T06:58:26.979Z,-0.09
2018-02-06T06:59:26.696Z,-0.07
2018-02-06T07:00:26.866Z,-0.06
2018-02-06T07:01:26.848Z,-0.06
2018-02-06T07:02:26.802Z,-0.06
2018-02-06T07:03:26.645Z,-0.06
2018-02-06T07:04:26.655Z,-0.06
2018-02-06T07:05:26.533Z,-0.06
2018-02-06T07:06:26.592Z,-0.05
2018-02-06T07:07:26.935Z,-0.09
2018-02-06T07:08:26.813Z,-0.06
2018-02-06T07:09:26.724Z,-0.08
2018-02-06T07:10:26.818Z,-0.09
2018-02-06T07:11:26.651Z,-0.04
2018-02-06T07:12:26.893Z,-0.03
2018-02-06T07:13:27.182Z,-0.03
2018-02-06T07:14:26.870Z,0
2018-02-06T07:15:26.683Z,0.02
2018-02-06T07:16:26.633Z,0.03
2018-02-06T07:17:26.666Z,-0.03
2018-02-06T07:18:26.739Z,0
2018-02-06T07:19:26.709Z,-0.04
2018-02-06T07:20:26.644Z,-0.03
2018-02-06T07:21:26.745Z,-0.04
2018-02-06T07:22:26.735Z,-0.02
2018-02-06T07:23:26.694Z,-0.01
2018-02-06T07:24:26.707Z,-0.03
2018-02-06T07:25:26.809Z,-0.04
2018-02-06T07:26:26.918Z,-0.06
2018-02-06T07:27:26.634Z,-0.05
2018-02-06T07:28:26.852Z,-0.04
2018-02-06T07:29:26.676Z,-0.03
2018-02-06T07:30:26.910Z,-0.02
2018-02-06T07:31:26.819Z,0
2018-02-06T07:32:26.651Z,0.03
2018-02-06T07:33:26.864Z,0.01
2018-02-06T07:34:26.764Z,0.03
2018-02-06T07:35:26.877Z,0.04
2018-02-06T07:36:26.755Z,0.05
2018-02-06T07:37:26.919Z,0.07
2018-02-06T07:38:26.776Z,0.08
2018-02-06T07:39:26.698Z,0.07
2018-02-06T07:40:26.865Z,0.07
2018-02-06T07:41:26.744Z,0.09
2018-02-06T07:42:26.751Z,0.08
2018-02-06T07:43:26.893Z,0.09
2018-02-06T07:44:26.845Z,0.09
2018-02-06T07:45:26.957Z,0.09
2018-02-06T07:46:26.714Z,0.08
2018-02-06T07:47:26.882Z,0.09
2018-02-06T07:48:26.796Z,0.13
2018-02-06T07:49:26.919Z,0.13
2018-02-06T07:50:26.899Z,0.15
2018-02-06T07:51:26.856Z,0.11
2018-02-06T07:52:26.845Z,0.13
2018-02-06T07:53:26.893Z,0.09
2018-02-06T07:54:26.743Z,0.14
2018-02-06T07:55:26.631Z,0.15
2018-02-06T07:56:26.612Z,0.15
2018-02-06T07:57:26.758Z,0.15
2018-02-06T07:58:26.831Z,0.19
2018-02-06T07:59:26.703Z,0.15
2018-02-06T08:00:26.823Z,0.15
2018-02-06T08:01:26.820Z,0.15
2018-02-06T08:02:26.998Z,0.2
2018-02-06T08:03:26.912Z,0.16
2018-02-06T08:04:26.979Z,0.17
2018-02-06T08:05:27.071Z,0.21
2018-02-06T08:06:26.872Z,0.15
2018-02-06T08:07:26.852Z,0.2
2018-02-06T08:08:26.817Z,0.2
2018-02-06T08:09:26.832Z,0.21
2018-02-06T08:10:26.882Z,0.21
2018-02-06T08:11:26.776Z,0.22
2018-02-06T08:12:26.742Z,0.21
2018-02-06T08:13:26.861Z,0.25
2018-02-06T08:14:26.564Z,0.25
2018-02-06T08:15:26.611Z,0.26
2018-02-06T08:16:26.794Z,0.3
2018-02-06T08:17:26.595Z,0.26
2018-02-06T08:18:26.741Z,0.27
2018-02-06T08:19:26.700Z,0.26
2018-02-06T08:20:26.832Z,0.27
2018-02-06T08:21:26.644Z,0.31
2018-02-06T08:22:26.533Z,0.29
2018-02-06T08:23:26.743Z,0.31
2018-02-06T08:24:26.743Z,0.35
2018-02-06T08:25:26.842Z,0.35
2018-02-06T08:26:26.794Z,0.36
2018-02-06T08:27:26.566Z,0.4
2018-02-06T08:28:26.725Z,0.4
2018-02-06T08:29:26.847Z,0.4
2018-02-06T08:30:26.741Z,0.4
2018-02-06T08:31:26.602Z,0.42
2018-02-06T08:32:26.797Z,0.48
2018-02-06T08:33:26.646Z,0.46
2018-02-06T08:34:26.788Z,0.46
2018-02-06T08:35:26.797Z,0.46
2018-02-06T08:36:26.651Z,0.5
2018-02-06T08:37:26.762Z,0.46
2018-02-06T08:38:26.741Z,0.46
2018-02-06T08:39:26.754Z,0.46
2018-02-06T08:40:26.555Z,0.5
2018-02-06T08:41:26.783Z,0.49
2018-02-06T08:42:26.744Z,0.51
2018-02-06T08:43:26.758Z,0.52
2018-02-06T08:44:26.757Z,0.55
2018-02-06T08:45:26.757Z,0.53
2018-02-06T08:46:26.610Z,0.56
2018-02-06T08:47:26.536Z,0.58
2018-02-06T08:48:26.589Z,0.57
2018-02-06T08:49:26.742Z,0.54
2018-02-06T08:50:26.543Z,0.59
2018-02-06T08:51:26.575Z,0.58
2018-02-06T08:52:26.629Z,0.58
2018-02-06T08:53:26.601Z,0.57
2018-02-06T08:54:26.619Z,0.58
2018-02-06T08:55:26.650Z,0.64
2018-02-06T08:56:26.638Z,0.65
2018-02-06T08:57:26.592Z,0.64
2018-02-06T08:58:26.625Z,0.64
2018-02-06T08:59:26.532Z,0.66
2018-02-06T09:00:26.558Z,0.66
2018-02-06T09:01:26.712Z,0.69
2018-02-06T09:02:26.570Z,0.66
2018-02-06T09:03:26.592Z,0.64
2018-02-06T09:04:26.705Z,0.67
2018-02-06T09:05:26.605Z,0.68
2018-02-06T09:06:26.718Z,0.7
2018-02-06T09:07:26.726Z,0.66
2018-02-06T09:08:26.615Z,0.66
2018-02-06T09:09:26.498Z,0.66
2018-02-06T09:10:26.571Z,0.69
2018-02-06T09:11:27.398Z,0.69
2018-02-06T09:12:26.585Z,0.72
2018-02-06T09:13:26.600Z,0.7
2018-02-06T09:14:26.507Z,0.72
2018-02-06T09:15:26.567Z,0.7
2018-02-06T09:16:26.402Z,0.72
2018-02-06T09:17:26.402Z,0.72
2018-02-06T09:18:26.479Z,0.72
2018-02-06T09:19:26.535Z,0.75
2018-02-06T09:20:26.552Z,0.72
2018-02-06T09:21:26.483Z,0.75
2018-02-06T09:22:26.565Z,0.77
2018-02-06T09:23:26.626Z,0.75
2018-02-06T09:24:26.461Z,0.77
2018-02-06T09:25:26.355Z,0.78
2018-02-06T09:26:26.488Z,0.82
2018-02-06T09:27:26.397Z,0.79
2018-02-06T09:28:26.516Z,0.82
2018-02-06T09:29:26.463Z,0.83
2018-02-06T09:30:26.409Z,0.83
2018-02-06T09:31:26.589Z,0.81
2018-02-06T09:32:26.665Z,0.82
2018-02-06T09:33:26.602Z,0.82
2018-02-06T09:34:26.499Z,0.85
2018-02-06T09:35:26.307Z,0.85
2018-02-06T09:36:26.536Z,0.89
2018-02-06T09:37:26.371Z,0.87
2018-02-06T09:38:26.402Z,0.85
2018-02-06T09:39:26.378Z,0.89
2018-02-06T09:40:26.330Z,0.89
2018-02-06T09:41:26.548Z,0.94
2018-02-06T09:42:26.510Z,0.96
2018-02-06T09:43:26.493Z,0.97
2018-02-06T09:44:26.537Z,0.94
2018-02-06T09:45:26.352Z,0.96
2018-02-06T09:46:26.331Z,0.96
2018-02-06T09:47:26.313Z,0.97
2018-02-06T09:48:26.379Z,1.02
2018-02-06T09:49:26.281Z,1.07
2018-02-06T09:50:26.482Z,1.03
2018-02-06T09:51:26.448Z,1.02
2018-02-06T09:52:26.518Z,1.07
2018-02-06T09:53:26.418Z,1.07
2018-02-06T09:54:26.488Z,1.12
2018-02-06T09:55:27.422Z,1.14
2018-02-06T09:56:26.422Z,1.14
2018-02-06T09:57:26.382Z,1.15
2018-02-06T09:58:26.323Z,1.2
2018-02-06T09:59:26.332Z,1.2
2018-02-06T10:00:26.320Z,1.21
2018-02-06T10:01:26.445Z,1.25
2018-02-06T10:02:26.235Z,1.26
2018-02-06T10:03:26.395Z,1.26
2018-02-06T10:04:26.396Z,1.29
2018-02-06T10:05:26.381Z,1.34
2018-02-06T10:06:26.339Z,1.34
2018-02-06T10:07:27.125Z,1.36
2018-02-06T10:08:26.444Z,1.41
2018-02-06T10:09:26.319Z,1.41
2018-02-06T10:10:26.609Z,1.45
2018-02-06T10:11:26.573Z,1.46
2018-02-06T10:12:26.477Z,1.48
2018-02-06T10:13:26.406Z,1.54
2018-02-06T10:14:26.296Z,1.58
2018-02-06T10:15:26.533Z,1.58
2018-02-06T10:16:26.457Z,1.6
2018-02-06T10:17:26.433Z,1.65
2018-02-06T10:18:26.324Z,1.71
2018-02-06T10:19:26.442Z,1.74
2018-02-06T10:20:27.007Z,1.76
2018-02-06T10:21:26.346Z,1.82
2018-02-06T10:22:26.362Z,1.84
2018-02-06T10:23:26.418Z,1.91
2018-02-06T10:24:26.298Z,1.95
2018-02-06T10:25:26.464Z,1.97
2018-02-06T10:26:26.296Z,2.02
2018-02-06T10:27:26.420Z,2.02
2018-02-06T10:28:26.324Z,2.08
2018-02-06T10:29:26.300Z,2.09
2018-02-06T10:30:26.378Z,2.13
2018-02-06T10:31:26.990Z,2.15
2018-02-06T10:32:26.418Z,2.2
2018-02-06T10:33:26.458Z,2.22
2018-02-06T10:34:26.345Z,2.27
2018-02-06T10:35:26.524Z,2.27
2018-02-06T10:36:26.422Z,2.25
2018-02-06T10:37:26.373Z,2.22
2018-02-06T10:38:26.247Z,2.2
2018-02-06T10:39:26.658Z,2.19
2018-02-06T10:40:27.258Z,2.16
2018-02-06T10:41:26.395Z,2.19
2018-02-06T10:42:26.345Z,2.2
2018-02-06T10:43:26.446Z,2.2
2018-02-06T10:44:26.425Z,2.2
2018-02-06T10:45:26.512Z,2.22
2018-02-06T10:46:26.357Z,2.26
2018-02-06T10:47:26.271Z,2.28
2018-02-06T10:48:26.209Z,2.32
2018-02-06T10:49:26.295Z,2.31
2018-02-06T10:50:26.392Z,2.33
2018-02-06T10:51:26.204Z,2.38
2018-02-06T10:52:26.140Z,2.33
2018-02-06T10:53:26.238Z,2.32
2018-02-06T10:54:26.154Z,2.31
2018-02-06T10:55:26.213Z,2.33
2018-02-06T10:56:26.088Z,2.34
2018-02-06T10:57:26.063Z,2.38
2018-02-06T10:58:26.139Z,2.38
2018-02-06T10:59:26.314Z,2.4
2018-02-06T11:00:26.411Z,2.43
2018-02-06T11:01:26.245Z,2.41
2018-02-06T11:02:26.171Z,2.43
2018-02-06T11:03:26.210Z,2.44
2018-02-06T11:04:26.225Z,2.4
2018-02-06T11:05:26.970Z,2.4
2018-02-06T11:06:26.121Z,2.38
2018-02-06T11:07:26.154Z,2.4
2018-02-06T11:08:26.149Z,2.43
2018-02-06T11:09:26.234Z,2.41
2018-02-06T11:10:26.338Z,2.46
2018-02-06T11:11:26.253Z,2.48
2018-02-06T11:12:26.319Z,2.46
2018-02-06T11:13:26.260Z,2.44
2018-02-06T11:14:26.244Z,2.46
2018-02-06T11:15:26.820Z,2.49
2018-02-06T11:16:26.279Z,2.46
2018-02-06T11:17:26.177Z,2.48
2018-02-06T11:18:26.190Z,2.46
2018-02-06T11:19:26.142Z,2.46
2018-02-06T11:20:26.099Z,2.44
2018-02-06T11:21:25.954Z,2.43
2018-02-06T11:22:25.959Z,2.43
2018-02-06T11:23:25.987Z,2.4
2018-02-06T11:24:26.098Z,2.4
2018-02-06T11:25:26.105Z,2.39
2018-02-06T11:26:25.994Z,2.38
2018-02-06T11:27:25.900Z,2.39
2018-02-06T11:28:26.082Z,2.39
2018-02-06T11:29:25.998Z,2.42
2018-02-06T11:30:26.127Z,2.41
2018-02-06T11:31:26.101Z,2.4
2018-02-06T11:32:26.161Z,2.43
2018-02-06T11:33:26.082Z,2.41
2018-02-06T11:34:26.090Z,2.41
2018-02-06T11:35:26.082Z,2.36
2018-02-06T11:36:26.155Z,2.39
2018-02-06T11:37:26.117Z,2.38
2018-02-06T11:38:26.032Z,2.34
2018-02-06T11:39:26.096Z,2.38
2018-02-06T11:40:26.555Z,2.38
2018-02-06T11:41:25.985Z,2.38
2018-02-06T11:42:26.101Z,2.33
2018-02-06T11:43:25.948Z,2.32
2018-02-06T11:44:26.312Z,2.34
2018-02-06T11:45:26.164Z,2.34
2018-02-06T11:46:25.918Z,2.33
2018-02-06T11:47:25.923Z,2.32
2018-02-06T11:48:26.151Z,2.34
2018-02-06T11:49:26.087Z,2.25
2018-02-06T11:50:26.290Z,2.25
2018-02-06T11:51:26.039Z,2.2
2018-02-06T11:52:26.203Z,2.26
2018-02-06T11:53:26.086Z,2.26
2018-02-06T11:54:26.048Z,2.26
2018-02-06T11:55:26.148Z,2.26
2018-02-06T11:56:26.033Z,2.31
2018-02-06T11:57:26.180Z,2.28
2018-02-06T11:58:26.261Z,2.32
2018-02-06T11:59:26.240Z,2.26
2018-02-06T12:00:26.385Z,2.27
2018-02-06T12:01:25.963Z,2.28
2018-02-06T12:02:26.015Z,2.26
2018-02-06T12:03:26.042Z,2.27
2018-02-06T12:04:26.040Z,2.27
2018-02-06T12:05:26.083Z,2.27
2018-02-06T12:06:26.001Z,2.26
2018-02-06T12:07:26.093Z,2.27
2018-02-06T12:08:26.084Z,2.26
2018-02-06T12:09:26.138Z,2.28
2018-02-06T12:10:26.219Z,2.27
2018-02-06T12:11:26.064Z,2.27
2018-02-06T12:12:26.062Z,2.26
2018-02-06T12:13:26.151Z,2.24
2018-02-06T12:14:26.180Z,2.27
2018-02-06T12:15:26.251Z,2.31
2018-02-06T12:16:26.047Z,2.34
2018-02-06T12:17:26.070Z,2.34
2018-02-06T12:18:25.985Z,2.34
2018-02-06T12:19:26.107Z,2.33
2018-02-06T12:20:25.949Z,2.33
2018-02-06T12:21:26.279Z,2.34
2018-02-06T12:22:25.864Z,2.38
2018-02-06T12:23:25.914Z,2.33
2018-02-06T12:24:26.005Z,2.32
2018-02-06T12:25:25.979Z,2.34
2018-02-06T12:26:25.905Z,2.38
2018-02-06T12:27:25.981Z,2.38
2018-02-06T12:28:25.869Z,2.39
2018-02-06T12:29:25.882Z,2.38
2018-02-06T12:30:26.114Z,2.45
2018-02-06T12:31:25.951Z,2.46
2018-02-06T12:32:25.877Z,2.52
2018-02-06T12:33:25.836Z,2.53
2018-02-06T12:34:25.879Z,2.57
2018-02-06T12:35:26.604Z,2.51
2018-02-06T12:36:25.939Z,2.46
2018-02-06T12:37:25.876Z,2.52
2018-02-06T12:38:25.952Z,2.52
2018-02-06T12:39:25.960Z,2.54
2018-02-06T12:40:26.051Z,2.53
2018-02-06T12:41:25.956Z,2.62
2018-02-06T12:42:25.922Z,2.6
2018-02-06T12:43:26.001Z,2.63
2018-02-06T12:44:26.040Z,2.65
2018-02-06T12:45:26.051Z,2.6
2018-02-06T12:46:25.888Z,2.58
2018-02-06T12:47:26.062Z,2.62
2018-02-06T12:48:25.904Z,2.63
2018-02-06T12:49:25.906Z,2.7
2018-02-06T12:50:25.918Z,2.73
2018-02-06T12:51:25.768Z,2.71
2018-02-06T12:52:25.787Z,2.74
2018-02-06T12:53:25.723Z,2.75
2018-02-06T12:54:25.903Z,2.82
2018-02-06T12:55:25.827Z,2.88
2018-02-06T12:56:25.666Z,2.88
2018-02-06T12:57:26.138Z,2.96
2018-02-06T12:58:25.725Z,3.05
2018-02-06T12:59:25.907Z,3.08
2018-02-06T13:00:25.827Z,3.07
2018-02-06T13:01:25.836Z,3.13
2018-02-06T13:02:25.945Z,3.17
2018-02-06T13:03:25.719Z,3.2
2018-02-06T13:04:25.849Z,3.21
2018-02-06T13:05:25.852Z,3.25
2018-02-06T13:06:25.802Z,3.27
2018-02-06T13:07:25.709Z,3.33
2018-02-06T13:08:25.818Z,3.31
2018-02-06T13:09:25.810Z,3.37
2018-02-06T13:10:25.706Z,3.31
2018-02-06T13:11:25.929Z,3.17
2018-02-06T13:12:25.777Z,3.11
2018-02-06T13:13:25.960Z,3.14
2018-02-06T13:14:25.829Z,3.2
2018-02-06T13:15:25.866Z,3.24
2018-02-06T13:16:25.797Z,3.23
2018-02-06T13:17:25.800Z,3.2
2018-02-06T13:18:25.890Z,3.3
2018-02-06T13:19:25.904Z,3.27
2018-02-06T13:20:25.721Z,3.31
2018-02-06T13:21:25.693Z,3.34
2018-02-06T13:22:26.580Z,3.43
2018-02-06T13:23:26.510Z,3.45
2018-02-06T13:24:26.482Z,3.51
2018-02-06T13:25:26.663Z,3.52
2018-02-06T13:26:26.611Z,3.56
2018-02-06T13:27:26.553Z,3.53
2018-02-06T13:28:26.585Z,3.61
2018-02-06T13:29:26.618Z,3.58
2018-02-06T13:30:26.579Z,3.65
2018-02-06T13:31:26.569Z,3.67
2018-02-06T13:32:26.546Z,3.71
2018-02-06T13:33:26.410Z,3.71
2018-02-06T13:34:26.553Z,3.71
2018-02-06T13:35:27.283Z,3.69
2018-02-06T13:36:26.632Z,3.64
2018-02-06T13:37:26.671Z,3.68
2018-02-06T13:38:26.662Z,3.64
2018-02-06T13:39:26.584Z,3.64
2018-02-06T13:40:26.552Z,3.56
2018-02-06T13:41:26.617Z,3.51
2018-02-06T13:42:26.485Z,3.45
2018-02-06T13:43:26.482Z,3.49
2018-02-06T13:44:26.621Z,3.5
2018-02-06T13:45:26.559Z,3.49
2018-02-06T13:46:26.632Z,3.51
2018-02-06T13:47:26.494Z,3.49
2018-02-06T13:48:26.553Z,3.5
2018-02-06T13:49:26.677Z,3.56
2018-02-06T13:50:26.531Z,3.56
2018-02-06T13:51:26.652Z,3.56
2018-02-06T13:52:26.488Z,3.57
2018-02-06T13:53:26.678Z,3.58
2018-02-06T13:54:26.746Z,3.54
2018-02-06T13:55:26.515Z,3.54
2018-02-06T13:56:26.545Z,3.52
2018-02-06T13:57:26.604Z,3.52
2018-02-06T13:58:26.293Z,3.57
2018-02-06T13:59:26.470Z,3.57
2018-02-06T14:00:26.343Z,3.58
2018-02-06T14:01:26.601Z,3.57
2018-02-06T14:02:26.514Z,3.57
2018-02-06T14:03:26.455Z,3.6
2018-02-06T14:04:26.670Z,3.62
2018-02-06T14:05:26.593Z,3.63
2018-02-06T14:06:26.625Z,3.66
2018-02-06T14:07:26.528Z,3.66
2018-02-06T14:08:26.463Z,3.64
2018-02-06T14:09:26.540Z,3.63
2018-02-06T14:10:26.531Z,3.64
2018-02-06T14:11:26.598Z,3.68
2018-02-06T14:12:26.461Z,3.68
2018-02-06T14:13:26.726Z,3.68
2018-02-06T14:14:26.619Z,3.68
2018-02-06T14:15:26.631Z,3.68
2018-02-06T14:16:26.405Z,3.73
2018-02-06T14:17:26.507Z,3.68
2018-02-06T14:18:26.522Z,3.71
2018-02-06T14:19:26.507Z,3.77
2018-02-06T14:20:26.710Z,3.74
2018-02-06T14:21:26.615Z,3.76
2018-02-06T14:22:26.586Z,3.75
2018-02-06T14:23:26.664Z,3.8
2018-02-06T14:24:26.602Z,3.76
2018-02-06T14:25:26.615Z,3.72
2018-02-06T14:26:26.548Z,3.74
2018-02-06T14:27:26.861Z,3.78
2018-02-06T14:28:26.559Z,3.68
2018-02-06T14:29:26.518Z,3.66
2018-02-06T14:30:26.563Z,3.68
2018-02-06T14:31:26.335Z,3.66
2018-02-06T14:32:26.540Z,3.68
2018-02-06T14:33:26.473Z,3.59
2018-02-06T14:34:26.617Z,3.54
2018-02-06T14:35:26.618Z,3.51
2018-02-06T14:36:26.629Z,3.55
2018-02-06T14:37:26.787Z,3.55
2018-02-06T14:38:26.589Z,3.57
2018-02-06T14:39:26.445Z,3.56
2018-02-06T14:40:26.459Z,3.54
2018-02-06T14:41:26.351Z,3.51
2018-02-06T14:42:26.565Z,3.54
2018-02-06T14:43:26.635Z,3.5
2018-02-06T14:44:26.367Z,3.49
2018-02-06T14:45:26.536Z,3.51
2018-02-06T14:46:26.508Z,3.55
2018-02-06T14:47:26.424Z,3.55
2018-02-06T14:48:26.525Z,3.54
2018-02-06T14:49:26.502Z,3.54
2018-02-06T14:50:26.642Z,3.55
2018-02-06T14:51:26.549Z,3.55
2018-02-06T14:52:26.612Z,3.51
2018-02-06T14:53:26.695Z,3.53
2018-02-06T14:54:26.809Z,3.51
2018-02-06T14:55:26.547Z,3.5
2018-02-06T14:56:26.715Z,3.53
2018-02-06T14:57:26.518Z,3.45
2018-02-06T14:58:26.996Z,3.49
2018-02-06T14:59:26.634Z,3.49
2018-02-06T15:00:26.550Z,3.49
2018-02-06T15:01:26.495Z,3.5
2018-02-06T15:02:26.439Z,3.49
2018-02-06T15:03:26.634Z,3.45
2018-02-06T15:04:26.464Z,3.45
2018-02-06T15:05:26.527Z,3.44
2018-02-06T15:06:26.387Z,3.43
2018-02-06T15:07:26.486Z,3.42
2018-02-06T15:08:26.565Z,3.43
2018-02-06T15:09:26.569Z,3.44
2018-02-06T15:10:26.442Z,3.37
2018-02-06T15:11:26.404Z,3.37
2018-02-06T15:12:26.556Z,3.31
2018-02-06T15:13:26.697Z,3.32
2018-02-06T15:14:26.442Z,3.31
2018-02-06T15:15:26.975Z,3.3
2018-02-06T15:16:26.450Z,3.32
2018-02-06T15:17:26.586Z,3.32
2018-02-06T15:18:26.530Z,3.33
2018-02-06T15:19:26.621Z,3.36